createdAt,value
2019-04-16T00:01:11.277Z,22.40
2019-04-16T00:03:40.760Z,23.13
2019-04-16T00:06:16.939Z,21.50
2019-04-16T00:08:57.231Z,22.27
2019-04-16T00:11:44.313Z,21.70
2019-04-16T00:14:14.300Z,19.43
2019-04-16T00:16:44.634Z,22.30
2019-04-16T00:19:12.696Z,23.97
2019-04-16T00:21:45.425Z,27.13
2019-04-16T00:24:19.294Z,22.93
2019-04-16T00:26:48.024Z,23.37
2019-04-16T00:29:16.475Z,23.20
2019-04-16T00:31:46.441Z,18.73
2019-04-16T00:34:14.803Z,20.43
2019-04-16T00:36:43.224Z,25.40
2019-04-16T00:39:11.639Z,22.03
2019-04-16T00:41:39.980Z,22.10
2019-04-16T00:44:08.407Z,19.57
2019-04-16T00:46:36.799Z,20.80
2019-04-16T00:49:05.151Z,20.30
2019-04-16T00:51:33.543Z,21.97
2019-04-16T00:54:01.979Z,23.27
2019-04-16T00:56:30.372Z,23.53
2019-04-16T00:58:58.766Z,21.93
2019-04-16T01:01:27.140Z,20.93
2019-04-16T01:03:55.540Z,23.43
2019-04-16T01:06:23.964Z,24.77
2019-04-16T01:08:54.731Z,21.77
2019-04-16T01:11:22.482Z,22.90
2019-04-16T01:13:53.262Z,23.50
2019-04-16T01:16:22.040Z,23.53
2019-04-16T01:18:50.431Z,20.40
2019-04-16T01:21:18.867Z,20.73
2019-04-16T01:23:49.383Z,26.47
2019-04-16T01:26:17.325Z,22.23
2019-04-16T01:28:56.450Z,23.23
2019-04-16T01:31:26.423Z,24.17
2019-04-16T01:34:02.521Z,21.77
2019-04-16T01:36:35.708Z,21.90
2019-04-16T01:39:17.163Z,23.17
2019-04-16T01:41:40.254Z,23.80
2019-04-16T01:44:08.515Z,23.50
2019-04-16T01:46:36.946Z,23.10
2019-04-16T01:49:09.799Z,18.70
2019-04-16T01:51:37.748Z,21.53
2019-04-16T01:54:05.337Z,23.13
2019-04-16T01:56:33.783Z,21.73
2019-04-16T01:59:04.531Z,21.40
2019-04-16T02:01:32.174Z,23.70
2019-04-16T02:04:00.575Z,26.07
2019-04-16T02:06:28.923Z,23.20
2019-04-16T02:09:01.721Z,23.53
2019-04-16T02:11:27.435Z,27.63
2019-04-16T02:13:55.833Z,23.20
2019-04-16T02:16:25.246Z,22.20
2019-04-16T02:18:54.381Z,29.23
2019-04-16T02:21:22.805Z,25.90
2019-04-16T02:23:51.186Z,27.13
2019-04-16T02:26:20.566Z,26.17
2019-04-16T02:28:49.439Z,22.60
2019-04-16T02:31:17.800Z,25.10
2019-04-16T02:33:46.133Z,23.67
2019-04-16T02:36:15.083Z,25.70
2019-04-16T02:38:52.285Z,22.80
2019-04-16T02:41:13.450Z,20.00
2019-04-16T02:43:41.896Z,23.20
2019-04-16T02:46:10.310Z,26.67
2019-04-16T02:48:38.708Z,23.87
2019-04-16T02:51:11.393Z,22.63
2019-04-16T02:53:58.771Z,21.70
2019-04-16T02:56:27.766Z,23.77
2019-04-16T02:59:14.382Z,24.23
2019-04-16T03:02:00.667Z,25.67
2019-04-16T03:04:38.252Z,22.60
2019-04-16T03:07:06.687Z,28.33
2019-04-16T03:09:39.757Z,29.13
2019-04-16T03:12:04.989Z,24.60
2019-04-16T03:14:33.384Z,24.47
2019-04-16T03:17:09.917Z,28.47
2019-04-16T03:19:38.975Z,24.00
2019-04-16T03:22:08.243Z,25.60
2019-04-16T03:24:37.543Z,26.77
2019-04-16T03:27:06.620Z,25.50
2019-04-16T03:29:35.108Z,28.33
2019-04-16T03:32:03.535Z,28.97
2019-04-16T03:34:31.932Z,24.23
2019-04-16T03:37:01.903Z,23.40
2019-04-16T03:39:30.358Z,22.67
2019-04-16T03:41:58.679Z,24.43
2019-04-16T03:44:27.101Z,27.97
2019-04-16T03:46:57.567Z,25.97
2019-04-16T03:49:30.395Z,26.60
2019-04-16T03:51:58.748Z,25.37
2019-04-16T03:54:27.180Z,25.63
2019-04-16T03:56:55.561Z,36.53
2019-04-16T03:59:24.004Z,26.23
2019-04-16T04:01:52.300Z,27.30
2019-04-16T04:04:20.563Z,25.30
2019-04-16T04:06:48.872Z,26.47
2019-04-16T04:09:18.961Z,27.33
2019-04-16T04:11:47.119Z,28.70
2019-04-16T04:14:15.545Z,25.80
2019-04-16T04:16:45.631Z,27.47
2019-04-16T04:19:31.089Z,26.30
2019-04-16T04:21:56.705Z,26.77
2019-04-16T04:24:28.462Z,29.87
2019-04-16T04:26:58.495Z,26.57
2019-04-16T04:29:28.694Z,28.13
2019-04-16T04:31:57.176Z,25.73
2019-04-16T04:34:25.688Z,28.07
2019-04-16T04:36:59.686Z,27.73
2019-04-16T04:39:27.748Z,29.90
2019-04-16T04:41:57.254Z,27.23
2019-04-16T04:44:25.833Z,28.07
2019-04-16T04:46:54.342Z,26.70
2019-04-16T04:49:22.877Z,25.13
2019-04-16T04:51:51.295Z,28.03
2019-04-16T04:54:22.817Z,27.10
2019-04-16T04:56:50.833Z,29.03
2019-04-16T04:59:19.088Z,24.97
2019-04-16T05:01:47.312Z,27.07
2019-04-16T05:04:33.279Z,26.97
2019-04-16T05:07:04.657Z,29.17
2019-04-16T05:09:36.462Z,26.13
2019-04-16T05:12:03.064Z,26.50
2019-04-16T05:14:31.323Z,26.93
2019-04-16T05:16:59.545Z,24.43
2019-04-16T05:19:27.796Z,28.83
2019-04-16T05:21:56.022Z,23.73
2019-04-16T05:24:28.922Z,22.47
2019-04-16T05:26:56.356Z,25.50
2019-04-16T05:29:24.152Z,25.73
2019-04-16T05:31:54.457Z,28.43
2019-04-16T05:34:22.454Z,24.73
2019-04-16T05:36:50.667Z,28.60
2019-04-16T05:39:18.923Z,22.90
2019-04-16T05:41:47.215Z,19.33
2019-04-16T05:44:15.477Z,20.97
2019-04-16T05:46:46.653Z,21.47
2019-04-16T05:49:13.672Z,20.40
2019-04-16T05:51:41.908Z,21.60
2019-04-16T05:54:27.131Z,20.17
2019-04-16T05:57:03.076Z,19.37
2019-04-16T05:59:33.889Z,21.43
2019-04-16T06:02:02.988Z,23.60
2019-04-16T06:04:31.243Z,25.90
2019-04-16T06:07:02.836Z,20.50
2019-04-16T06:09:29.440Z,28.07
2019-04-16T06:11:57.741Z,27.83
2019-04-16T06:14:36.732Z,30.90
2019-04-16T06:17:09.611Z,28.90
2019-04-16T06:19:51.147Z,31.07
2019-04-16T06:22:28.312Z,31.37
2019-04-16T06:24:58.283Z,34.63
2019-04-16T06:27:34.258Z,28.90
2019-04-16T06:30:04.225Z,26.97
2019-04-16T06:32:46.151Z,31.80
2019-04-16T06:35:16.131Z,29.20
2019-04-16T06:37:51.823Z,26.87
2019-04-16T06:40:37.738Z,23.33
2019-04-16T06:43:13.217Z,23.63
2019-04-16T06:45:43.117Z,26.00
2019-04-16T06:48:13.875Z,35.00
2019-04-16T06:50:59.264Z,28.73
2019-04-16T06:53:30.598Z,29.37
2019-04-16T06:56:09.896Z,29.33
2019-04-16T06:58:57.249Z,28.90
2019-04-16T07:01:29.406Z,36.37
2019-04-16T07:03:59.959Z,31.07
2019-04-16T07:06:44.763Z,30.03
2019-04-16T07:09:26.898Z,30.07
2019-04-16T07:12:04.193Z,29.83
2019-04-16T07:14:35.918Z,34.30
2019-04-16T07:17:02.551Z,29.53
2019-04-16T07:19:30.786Z,32.40
2019-04-16T07:21:59.037Z,23.57
2019-04-16T07:24:30.094Z,30.73
2019-04-16T07:26:57.325Z,29.27
2019-04-16T07:29:31.579Z,27.60
2019-04-16T07:31:59.094Z,25.13
2019-04-16T07:34:31.608Z,25.00
2019-04-16T07:37:13.700Z,29.40
2019-04-16T07:39:58.894Z,22.37
2019-04-16T07:42:31.289Z,24.60
2019-04-16T07:45:13.368Z,25.77
2019-04-16T07:47:43.263Z,26.03
2019-04-16T07:50:48.730Z,26.57
2019-04-16T07:53:35.399Z,29.90
2019-04-16T07:56:20.077Z,27.17
2019-04-16T07:58:48.727Z,20.63
2019-04-16T08:01:17.156Z,23.40
2019-04-16T08:03:45.668Z,26.50
2019-04-16T08:06:14.557Z,24.43
2019-04-16T08:08:43.121Z,26.33
2019-04-16T08:11:11.545Z,25.30
2019-04-16T08:13:41.390Z,21.23
2019-04-16T08:16:09.893Z,21.73
2019-04-16T08:18:39.929Z,19.90
2019-04-16T08:21:12.102Z,25.17
2019-04-16T08:23:40.023Z,21.20
2019-04-16T08:26:12.983Z,21.53
2019-04-16T08:28:38.621Z,24.83
2019-04-16T08:31:12.271Z,24.17
2019-04-16T08:33:38.699Z,22.73
2019-04-16T08:36:07.017Z,20.40
2019-04-16T08:38:35.492Z,23.67
2019-04-16T08:41:04.100Z,26.03
2019-04-16T08:43:32.582Z,26.33
2019-04-16T08:46:00.866Z,23.43
2019-04-16T08:48:29.125Z,27.17
2019-04-16T08:50:58.485Z,23.00
2019-04-16T08:53:27.327Z,24.43
2019-04-16T08:55:55.597Z,21.27
2019-04-16T08:58:23.816Z,22.03
2019-04-16T09:00:52.400Z,26.73
2019-04-16T09:03:21.357Z,19.87
2019-04-16T09:05:50.225Z,21.40
2019-04-16T09:08:32.925Z,22.17
2019-04-16T09:11:03.673Z,22.93
2019-04-16T09:13:36.853Z,20.67
2019-04-16T09:16:06.163Z,22.97
2019-04-16T09:18:36.760Z,20.83
2019-04-16T09:21:06.947Z,23.67
2019-04-16T09:23:35.820Z,22.07
2019-04-16T09:26:14.194Z,21.60
2019-04-16T09:28:37.848Z,21.27
2019-04-16T09:31:18.738Z,18.37
2019-04-16T09:33:57.620Z,21.20
2019-04-16T09:36:44.017Z,22.20
2019-04-16T09:39:29.888Z,20.77
2019-04-16T09:41:58.148Z,20.13
2019-04-16T09:44:29.779Z,18.77
2019-04-16T09:46:59.447Z,21.80
2019-04-16T09:49:26.187Z,19.07
2019-04-16T09:51:54.460Z,17.83
2019-04-16T09:54:22.684Z,24.97
2019-04-16T09:57:01.247Z,20.23
2019-04-16T09:59:31.784Z,18.37
2019-04-16T10:02:06.257Z,23.53
2019-04-16T10:04:38.130Z,19.17
2019-04-16T10:07:06.718Z,19.17
2019-04-16T10:09:35.297Z,22.20
2019-04-16T10:12:07.962Z,22.23
2019-04-16T10:14:35.720Z,22.47
2019-04-16T10:17:05.858Z,26.00
2019-04-16T10:19:34.430Z,20.60
2019-04-16T10:22:03.055Z,22.63
2019-04-16T10:24:39.165Z,20.63
2019-04-16T10:27:08.409Z,22.23
2019-04-16T10:29:37.224Z,20.20
2019-04-16T10:32:05.811Z,21.00
2019-04-16T10:34:36.296Z,21.00
2019-04-16T10:37:04.080Z,22.27
2019-04-16T10:39:42.758Z,21.40
2019-04-16T10:42:18.439Z,21.57
2019-04-16T10:45:00.479Z,21.70
2019-04-16T10:47:39.303Z,27.47
2019-04-16T10:50:25.486Z,20.70
2019-04-16T10:53:10.758Z,23.47
2019-04-16T10:55:43.442Z,23.27
2019-04-16T10:58:29.892Z,21.77
2019-04-16T11:00:59.816Z,20.83
2019-04-16T11:03:34.433Z,19.23
2019-04-16T11:06:01.193Z,20.97
2019-04-16T11:08:29.467Z,20.53
2019-04-16T11:10:57.720Z,22.30
2019-04-16T11:13:30.432Z,24.80
2019-04-16T11:16:00.401Z,20.77
2019-04-16T11:18:28.759Z,19.93
2019-04-16T11:20:57.141Z,20.07
2019-04-16T11:23:25.347Z,21.23
2019-04-16T11:25:53.648Z,19.60
2019-04-16T11:28:21.902Z,21.53
2019-04-16T11:30:51.865Z,20.77
2019-04-16T11:33:20.137Z,21.10
2019-04-16T11:35:52.826Z,22.23
2019-04-16T11:38:18.385Z,23.90
2019-04-16T11:40:46.652Z,18.93
2019-04-16T11:43:14.940Z,21.27
2019-04-16T11:45:43.377Z,23.37
2019-04-16T11:48:11.659Z,19.30
2019-04-16T11:50:39.967Z,20.17
2019-04-16T11:53:08.263Z,20.10
2019-04-16T11:55:36.536Z,20.63
2019-04-16T11:58:06.509Z,24.17
2019-04-16T12:00:51.769Z,20.23
2019-04-16T12:03:27.079Z,22.10
2019-04-16T12:05:57.070Z,22.10
2019-04-16T12:08:45.400Z,22.50
2019-04-16T12:11:20.821Z,22.20
2019-04-16T12:14:08.647Z,24.50
2019-04-16T12:16:43.085Z,21.47
2019-04-16T12:19:16.286Z,22.67
2019-04-16T12:21:54.791Z,20.07
2019-04-16T12:24:27.413Z,22.33
2019-04-16T12:26:59.845Z,19.33
2019-04-16T12:29:44.635Z,19.07
2019-04-16T12:32:14.556Z,21.20
2019-04-16T12:34:56.835Z,24.67
2019-04-16T12:37:26.737Z,21.50
2019-04-16T12:40:05.826Z,23.47
2019-04-16T12:42:44.828Z,24.80
2019-04-16T12:45:31.310Z,18.87
2019-04-16T12:48:01.709Z,23.87
2019-04-16T12:50:34.415Z,18.27
2019-04-16T12:53:07.164Z,21.30
2019-04-16T12:55:37.016Z,21.80
2019-04-16T12:58:19.141Z,19.27
2019-04-16T13:00:56.077Z,18.23
2019-04-16T13:03:26.013Z,19.93
2019-04-16T13:05:55.961Z,17.10
2019-04-16T13:08:29.106Z,19.73
2019-04-16T13:11:13.782Z,19.50
2019-04-16T13:14:00.152Z,20.13
2019-04-16T13:16:36.361Z,16.57
2019-04-16T13:19:23.100Z,17.17
2019-04-16T13:21:55.718Z,19.60
2019-04-16T13:24:25.617Z,21.57
2019-04-16T13:26:58.400Z,17.03
2019-04-16T13:29:29.460Z,20.43
2019-04-16T13:31:57.720Z,19.60
2019-04-16T13:34:26.024Z,17.60
2019-04-16T13:36:59.221Z,17.83
2019-04-16T13:39:25.869Z,19.30
2019-04-16T13:41:56.301Z,17.50
2019-04-16T13:44:26.180Z,17.30
2019-04-16T13:46:54.520Z,18.57
2019-04-16T13:49:31.400Z,18.90
2019-04-16T13:51:57.648Z,18.03
2019-04-16T13:54:28.132Z,17.80
2019-04-16T13:57:01.272Z,16.23
2019-04-16T13:59:31.304Z,15.93
2019-04-16T14:02:07.056Z,15.87
2019-04-16T14:04:37.173Z,17.83
2019-04-16T14:07:05.244Z,16.27
2019-04-16T14:09:33.464Z,14.77
2019-04-16T14:12:01.693Z,15.37
2019-04-16T14:14:29.945Z,17.20
2019-04-16T14:17:08.414Z,15.00
2019-04-16T14:19:28.077Z,16.67
2019-04-16T14:21:56.296Z,14.73
2019-04-16T14:24:24.554Z,16.93
2019-04-16T14:26:53.021Z,18.87
2019-04-16T14:29:24.746Z,15.47
2019-04-16T14:31:51.203Z,17.87
2019-04-16T14:34:21.171Z,17.20
2019-04-16T14:36:49.559Z,15.97
2019-04-16T14:39:19.459Z,18.73
2019-04-16T14:41:50.154Z,19.00
2019-04-16T14:44:20.192Z,15.50
2019-04-16T14:46:48.550Z,16.00
2019-04-16T14:49:18.319Z,18.60
2019-04-16T14:51:47.032Z,17.57
2019-04-16T14:54:22.787Z,16.50
2019-04-16T14:56:55.352Z,16.00
2019-04-16T14:59:35.123Z,17.13
2019-04-16T15:02:17.738Z,18.20
2019-04-16T15:05:02.962Z,18.00
2019-04-16T15:07:44.088Z,16.27
2019-04-16T15:10:13.398Z,15.90
2019-04-16T15:12:46.072Z,15.93
2019-04-16T15:15:22.168Z,15.47
2019-04-16T15:18:07.029Z,15.90
2019-04-16T15:20:48.991Z,17.10
2019-04-16T15:23:37.368Z,16.27
2019-04-16T15:26:10.094Z,15.70
2019-04-16T15:28:48.937Z,15.37
2019-04-16T15:31:21.660Z,15.37
2019-04-16T15:34:00.727Z,16.23
2019-04-16T15:36:33.103Z,17.73
2019-04-16T15:39:04.078Z,15.50
2019-04-16T15:41:50.696Z,15.60
2019-04-16T15:44:24.038Z,14.93
2019-04-16T15:47:03.291Z,15.50
2019-04-16T15:49:42.332Z,16.57
2019-04-16T15:52:15.307Z,15.17
2019-04-16T15:54:45.200Z,16.13
2019-04-16T15:57:31.573Z,15.90
2019-04-16T16:00:04.698Z,15.23
2019-04-16T16:02:34.608Z,20.13
2019-04-16T16:05:04.640Z,16.30
2019-04-16T16:07:33.380Z,15.87
2019-04-16T16:10:03.307Z,15.43
2019-04-16T16:12:31.638Z,14.97
2019-04-16T16:15:00.029Z,16.53
2019-04-16T16:17:28.364Z,15.07
2019-04-16T16:19:56.659Z,15.57
2019-04-16T16:22:24.911Z,13.57
2019-04-16T16:24:53.127Z,15.60
2019-04-16T16:27:21.378Z,14.40
2019-04-16T16:29:49.610Z,16.17
2019-04-16T16:32:17.885Z,13.90
2019-04-16T16:34:46.105Z,17.00
2019-04-16T16:37:14.424Z,15.97
2019-04-16T16:39:42.712Z,15.37
2019-04-16T16:42:11.036Z,16.87
2019-04-16T16:44:39.332Z,18.30
2019-04-16T16:47:12.456Z,14.67
2019-04-16T16:49:40.675Z,16.03
2019-04-16T16:52:27.173Z,17.97
2019-04-16T16:54:57.124Z,17.27
2019-04-16T16:57:29.493Z,14.83
2019-04-16T17:00:15.949Z,15.20
2019-04-16T17:02:49.045Z,15.13
2019-04-16T17:05:28.215Z,17.17
2019-04-16T17:07:56.510Z,16.17
2019-04-16T17:10:24.773Z,16.70
2019-04-16T17:12:53.000Z,18.27
2019-04-16T17:15:21.318Z,16.17
2019-04-16T17:17:49.607Z,19.10
2019-04-16T17:20:17.873Z,16.73
2019-04-16T17:22:46.141Z,16.23
2019-04-16T17:25:14.435Z,15.33
2019-04-16T17:27:51.134Z,14.67
2019-04-16T17:30:12.779Z,15.80
2019-04-16T17:32:41.008Z,15.70
2019-04-16T17:35:14.437Z,15.97
2019-04-16T17:37:39.280Z,15.90
2019-04-16T17:40:27.213Z,14.67
2019-04-16T17:42:57.088Z,14.63
2019-04-16T17:45:36.041Z,14.97
2019-04-16T17:48:06.076Z,15.40
2019-04-16T17:50:52.824Z,14.23
2019-04-16T17:53:38.175Z,17.70
2019-04-16T17:56:23.420Z,16.43
2019-04-16T17:58:56.061Z,24.40
2019-04-16T18:01:43.435Z,18.77
2019-04-16T18:04:22.518Z,15.20
2019-04-16T18:06:52.495Z,15.40
2019-04-16T18:09:25.525Z,13.23
2019-04-16T18:12:11.997Z,15.00
2019-04-16T18:14:41.859Z,15.40
2019-04-16T18:17:11.839Z,18.50
2019-04-16T18:19:58.550Z,14.27
2019-04-16T18:22:28.695Z,16.33
2019-04-16T18:25:07.571Z,16.40
2019-04-16T18:27:40.488Z,30.33
2019-04-16T18:30:13.479Z,15.23
2019-04-16T18:32:49.395Z,17.63
2019-04-16T18:35:28.186Z,16.63
2019-04-16T18:37:58.242Z,16.13
2019-04-16T18:40:33.943Z,14.90
2019-04-16T18:43:03.912Z,16.37
2019-04-16T18:45:45.665Z,15.07
2019-04-16T18:48:18.528Z,15.30
2019-04-16T18:50:46.935Z,13.83
2019-04-16T18:53:15.260Z,13.80
2019-04-16T18:55:43.560Z,15.97
2019-04-16T18:58:13.682Z,19.97
2019-04-16T19:00:46.338Z,17.23
2019-04-16T19:03:15.896Z,17.53
2019-04-16T19:05:44.699Z,17.37
2019-04-16T19:08:13.177Z,20.93
2019-04-16T19:10:52.809Z,14.73
2019-04-16T19:13:22.515Z,15.40
2019-04-16T19:15:51.073Z,16.00
2019-04-16T19:18:20.550Z,15.10
2019-04-16T19:20:51.789Z,18.63
2019-04-16T19:23:21.465Z,18.47
2019-04-16T19:25:51.829Z,15.67
2019-04-16T19:28:20.382Z,19.97
2019-04-16T19:30:48.843Z,14.67
2019-04-16T19:33:17.336Z,16.87
2019-04-16T19:35:48.630Z,18.37
2019-04-16T19:38:15.891Z,16.17
2019-04-16T19:40:44.333Z,18.43
2019-04-16T19:43:12.847Z,20.30
2019-04-16T19:45:44.537Z,16.17
2019-04-16T19:48:19.488Z,19.53
2019-04-16T19:50:50.086Z,19.43
2019-04-16T19:53:22.298Z,18.17
2019-04-16T19:55:51.171Z,16.00
2019-04-16T20:01:33.687Z,17.87
2019-04-16T20:04:12.099Z,17.33
2019-04-16T20:06:59.518Z,17.70
2019-04-16T20:13:00.163Z,17.53
2019-04-16T20:15:31.381Z,19.50
2019-04-16T20:18:00.009Z,21.97
2019-04-16T20:20:36.627Z,20.10
2019-04-16T20:26:18.101Z,16.43
2019-04-16T20:28:51.675Z,20.07
2019-04-16T20:31:23.302Z,19.43
2019-04-16T20:33:53.338Z,17.13
2019-04-16T20:36:24.261Z,21.93
2019-04-16T20:38:53.982Z,19.63
2019-04-16T20:44:26.240Z,18.97
2019-04-16T20:46:58.231Z,20.07
2019-04-16T20:49:28.476Z,20.17
2019-04-16T20:52:00.466Z,18.30
2019-04-16T20:57:48.229Z,20.33
2019-04-16T21:00:24.526Z,20.53
2019-04-16T21:02:53.826Z,19.40
2019-04-16T21:05:27.939Z,21.20
2019-04-16T21:11:40.253Z,21.63
2019-04-16T21:18:04.798Z,20.50
2019-04-16T21:20:12.819Z,22.87
2019-04-16T21:22:41.311Z,24.53
2019-04-16T21:31:42.279Z,23.37
2019-04-16T21:34:12.480Z,20.27
2019-04-16T21:36:51.843Z,20.23
2019-04-16T21:39:21.906Z,23.87
2019-04-16T21:41:50.341Z,23.43
2019-04-16T21:44:18.787Z,19.47
2019-04-16T21:46:51.942Z,23.57
2019-04-16T21:49:17.360Z,20.47
2019-04-16T21:52:03.383Z,20.47
2019-04-16T21:54:31.867Z,21.50
2019-04-16T21:57:00.354Z,25.07
2019-04-16T21:59:28.830Z,23.80
2019-04-16T22:01:57.300Z,25.33
2019-04-16T22:04:25.737Z,23.57
2019-04-16T22:06:54.167Z,21.33
2019-04-16T22:09:22.644Z,23.67
2019-04-16T22:11:51.040Z,20.97
2019-04-16T22:14:22.269Z,27.93
2019-04-16T22:16:49.570Z,18.40
2019-04-16T22:19:18.004Z,23.13
2019-04-16T22:21:46.427Z,28.47
2019-04-16T22:24:14.904Z,21.77
2019-04-16T22:26:43.314Z,22.87
2019-04-16T22:29:15.358Z,20.60
2019-04-16T22:31:42.433Z,22.87
2019-04-16T22:34:12.066Z,30.27
2019-04-16T22:36:40.500Z,29.00
2019-04-16T22:39:22.646Z,28.63
2019-04-16T22:42:10.240Z,28.63
2019-04-16T22:44:43.460Z,26.90
2019-04-16T22:47:19.257Z,25.40
2019-04-16T22:49:47.623Z,26.13
2019-04-16T22:52:16.034Z,24.73
2019-04-16T22:54:44.473Z,26.70
2019-04-16T22:57:13.782Z,28.03
2019-04-16T22:59:42.215Z,26.23
2019-04-16T23:02:13.776Z,27.43
2019-04-16T23:04:42.294Z,23.60
2019-04-16T23:07:10.709Z,25.20
2019-04-16T23:09:39.125Z,24.37
2019-04-16T23:12:07.522Z,28.70
2019-04-16T23:14:36.473Z,26.00
2019-04-16T23:17:04.788Z,28.37
2019-04-16T23:19:33.218Z,23.70
2019-04-16T23:22:02.846Z,23.13
2019-04-16T23:24:31.254Z,26.10
2019-04-16T23:27:04.254Z,23.47
2019-04-16T23:29:29.739Z,21.60
2019-04-16T23:31:58.466Z,23.00
2019-04-16T23:34:38.109Z,20.53
2019-04-16T23:37:04.403Z,19.40
2019-04-16T23:39:33.612Z,23.17
2019-04-16T23:42:02.870Z,21.70
2019-04-16T23:44:42.147Z,21.13
2019-04-16T23:47:26.750Z,22.53
2019-04-16T23:50:08.508Z,22.87
2019-04-16T23:52:38.453Z,21.60
2019-04-16T23:57:53.624Z,19.13
